Terminal Aerodrome Forecast
Issued by NWS Sioux Falls, SD

Home | Current Version | Previous Version | Text Only | Print | Product List | Glossary On
Versions: 1 2 3 4 5 6 7 8 9 10 11 12 13 14 15 16 17
000
FTUS43 KFSD 221744
TAFHON
TAF
KHON 221744Z 2218/2318 21010KT 6SM -RA SCT030 OVC060
     FM222000 29009KT P6SM BKN060
     FM230100 25005KT P6SM SKC
     FM231000 19004KT P6SM SKC=

USA.gov is the U.S. government's official web portal to all federal, state and local government web resources and services.